createdAt,value
2022-08-27T00:00:33.266Z,87.22
2022-08-27T00:02:55.015Z,86.80
2022-08-27T00:05:18.662Z,86.52
2022-08-27T00:07:41.394Z,86.58
2022-08-27T00:10:03.859Z,86.38
2022-08-27T00:12:25.311Z,86.47
2022-08-27T00:14:46.874Z,86.95
2022-08-27T00:17:08.775Z,87.73
2022-08-27T00:19:30.225Z,88.06
2022-08-27T00:21:51.646Z,88.64
2022-08-27T00:24:13.206Z,89.31
2022-08-27T00:26:36.682Z,91.32
2022-08-27T00:28:59.602Z,91.54
2022-08-27T00:31:23.703Z,93.11
2022-08-27T00:33:49.015Z,93.31
2022-08-27T00:36:12.095Z,93.00
2022-08-27T00:38:34.465Z,94.82
2022-08-27T00:40:56.146Z,95.17
2022-08-27T00:43:26.847Z,93.71
2022-08-27T00:45:48.762Z,93.08
2022-08-27T00:48:15.105Z,93.89
2022-08-27T00:50:48.044Z,93.54
2022-08-27T00:53:14.559Z,95.31
2022-08-27T00:56:02.574Z,96.48
2022-08-27T00:58:34.034Z,97.48
2022-08-27T01:00:56.599Z,98.36
2022-08-27T01:03:18.182Z,98.69
2022-08-27T01:05:41.267Z,98.67
2022-08-27T01:08:11.799Z,99.46
2022-08-27T01:10:33.992Z,99.76
2022-08-27T01:12:56.551Z,99.03
2022-08-27T01:15:20.266Z,99.60
2022-08-27T01:17:44.221Z,99.91
2022-08-27T01:20:09.813Z,99.67
2022-08-27T01:22:46.795Z,99.81
2022-08-27T01:25:10.846Z,99.66
2022-08-27T01:27:32.284Z,99.21
2022-08-27T01:29:54.796Z,98.66
2022-08-27T01:32:20.815Z,99.45
2022-08-27T01:34:42.936Z,99.26
2022-08-27T01:37:06.625Z,98.80
2022-08-27T01:39:28.128Z,97.94
2022-08-27T01:41:49.760Z,96.87
2022-08-27T01:44:13.981Z,96.80
2022-08-27T01:46:36.449Z,97.85
2022-08-27T01:48:58.047Z,98.05
2022-08-27T01:51:19.875Z,97.54
2022-08-27T01:53:41.377Z,96.49
2022-08-27T01:56:03.263Z,96.12
2022-08-27T01:58:28.423Z,97.54
2022-08-27T02:00:56.603Z,96.61
2022-08-27T02:03:19.134Z,97.20
2022-08-27T02:05:45.007Z,97.35
2022-08-27T02:10:33.823Z,96.22
2022-08-27T02:12:55.355Z,94.95
2022-08-27T02:15:17.522Z,95.40
2022-08-27T02:17:39.272Z,95.44
2022-08-27T02:20:00.905Z,95.67
2022-08-27T02:22:22.558Z,96.00
2022-08-27T02:24:44.025Z,95.45
2022-08-27T02:27:05.585Z,96.92
2022-08-27T02:29:27.068Z,97.32
2022-08-27T02:31:48.555Z,97.67
2022-08-27T02:34:10.739Z,97.14
2022-08-27T02:36:32.243Z,96.83
2022-08-27T02:38:54.514Z,97.46
2022-08-27T02:41:16.710Z,98.02
2022-08-27T02:43:38.554Z,98.03
2022-08-27T02:46:01.533Z,98.97
2022-08-27T02:48:24.649Z,99.51
2022-08-27T02:50:46.767Z,98.83
2022-08-27T02:53:08.279Z,99.70
2022-08-27T02:55:30.363Z,98.37
2022-08-27T02:57:52.101Z,98.19
2022-08-27T03:00:16.086Z,97.85
2022-08-27T03:02:37.647Z,98.05
2022-08-27T03:04:59.133Z,96.98
2022-08-27T03:07:23.484Z,96.13
2022-08-27T03:09:44.932Z,95.21
2022-08-27T03:14:28.569Z,95.46
2022-08-27T03:16:50.295Z,95.49
2022-08-27T03:19:11.734Z,96.13
2022-08-27T03:21:34.625Z,96.28
2022-08-27T03:23:56.113Z,96.82
2022-08-27T03:26:19.878Z,97.09
2022-08-27T03:28:41.488Z,97.42
2022-08-27T03:31:06.672Z,97.94
2022-08-27T03:33:34.328Z,98.13
2022-08-27T03:35:55.810Z,98.29
2022-08-27T03:38:17.283Z,98.25
2022-08-27T03:40:38.752Z,98.10
2022-08-27T03:43:00.265Z,98.02
2022-08-27T03:45:21.688Z,98.85
2022-08-27T03:47:43.186Z,99.40
2022-08-27T03:50:06.270Z,98.05
2022-08-27T03:52:28.833Z,99.26
2022-08-27T03:54:50.300Z,98.96
2022-08-27T03:57:12.130Z,98.68
2022-08-27T03:59:33.681Z,98.43
2022-08-27T04:01:55.196Z,99.07
2022-08-27T04:04:16.851Z,98.71
2022-08-27T04:06:38.938Z,99.60
2022-08-27T04:09:00.742Z,98.21
2022-08-27T04:11:22.201Z,97.99
2022-08-27T04:13:44.417Z,97.57
2022-08-27T04:16:06.447Z,97.76
2022-08-27T04:18:27.971Z,97.20
2022-08-27T04:20:52.543Z,98.11
2022-08-27T04:23:14.308Z,98.31
2022-08-27T04:25:39.940Z,98.56
2022-08-27T04:28:01.436Z,99.50
2022-08-27T04:30:23.010Z,98.49
2022-08-27T04:32:44.687Z,98.10
2022-08-27T04:35:06.329Z,98.79
2022-08-27T04:37:31.927Z,99.31
2022-08-27T04:39:53.420Z,99.79
2022-08-27T04:42:18.198Z,99.43
2022-08-27T04:44:39.668Z,99.78
2022-08-27T04:47:03.628Z,99.05
2022-08-27T04:49:26.906Z,99.44
2022-08-27T04:51:48.396Z,98.63
2022-08-27T04:54:10.446Z,97.86
2022-08-27T04:56:33.460Z,97.12
2022-08-27T04:58:55.052Z,97.45
2022-08-27T05:01:19.550Z,98.12
2022-08-27T05:03:41.081Z,99.27
2022-08-27T05:06:05.808Z,98.16
2022-08-27T05:08:27.358Z,98.38
2022-08-27T05:10:50.675Z,97.72
2022-08-27T05:13:12.659Z,98.17
2022-08-27T05:15:35.594Z,97.93
2022-08-27T05:18:00.620Z,97.59
2022-08-27T05:20:24.146Z,98.12
2022-08-27T05:22:46.672Z,97.95
2022-08-27T05:25:08.811Z,97.02
2022-08-27T05:27:30.267Z,97.24
2022-08-27T05:29:51.706Z,97.23
2022-08-27T05:32:13.490Z,97.70
2022-08-27T05:34:35.572Z,97.31
2022-08-27T05:36:57.065Z,96.36
2022-08-27T05:39:18.598Z,96.67
2022-08-27T05:41:40.110Z,97.22
2022-08-27T05:44:24.133Z,97.24
2022-08-27T05:46:47.492Z,97.80
2022-08-27T05:49:10.142Z,96.81
2022-08-27T05:51:35.074Z,97.54
2022-08-27T05:53:59.103Z,97.11
2022-08-27T05:56:22.981Z,97.69
2022-08-27T05:59:04.190Z,97.83
2022-08-27T06:01:26.392Z,97.09
2022-08-27T06:03:47.826Z,96.58
2022-08-27T06:06:11.139Z,96.47
2022-08-27T06:08:33.132Z,96.65
2022-08-27T06:10:56.311Z,96.52
2022-08-27T06:13:17.779Z,95.95
2022-08-27T06:15:39.693Z,95.75
2022-08-27T06:18:01.584Z,96.17
2022-08-27T06:20:23.790Z,95.93
2022-08-27T06:22:45.515Z,95.94
2022-08-27T06:25:07.398Z,96.43
2022-08-27T06:27:28.845Z,96.48
2022-08-27T06:29:50.315Z,96.12
2022-08-27T06:32:13.183Z,96.49
2022-08-27T06:34:34.827Z,96.60
2022-08-27T06:36:56.406Z,96.35
2022-08-27T06:39:17.857Z,96.54
2022-08-27T06:41:41.007Z,96.27
2022-08-27T06:44:02.780Z,96.07
2022-08-27T06:46:27.220Z,96.07
2022-08-27T06:48:52.416Z,97.23
2022-08-27T06:51:21.102Z,97.05
2022-08-27T06:53:43.983Z,97.51
2022-08-27T06:56:05.972Z,97.96
2022-08-27T06:58:27.454Z,98.69
2022-08-27T07:00:49.179Z,99.85
2022-08-27T07:03:11.612Z,100.00
2022-08-27T07:05:34.596Z,100.00
2022-08-27T07:07:56.299Z,100.00
2022-08-27T07:10:17.857Z,100.00
2022-08-27T07:12:39.296Z,100.00
2022-08-27T07:15:00.742Z,100.00
2022-08-27T07:17:22.174Z,100.00
2022-08-27T07:19:44.392Z,100.00
2022-08-27T07:22:05.950Z,100.00
2022-08-27T07:24:27.723Z,100.00
2022-08-27T07:26:49.147Z,100.00
2022-08-27T07:29:13.355Z,100.00
2022-08-27T07:31:38.824Z,100.00
2022-08-27T07:34:00.284Z,100.00
2022-08-27T07:36:23.385Z,100.00
2022-08-27T07:38:44.860Z,100.00
2022-08-27T07:41:14.812Z,100.00
2022-08-27T07:43:56.146Z,100.00
2022-08-27T07:46:17.918Z,100.00
2022-08-27T07:48:39.389Z,100.00
2022-08-27T07:51:05.171Z,100.00
2022-08-27T07:53:26.606Z,100.00
2022-08-27T07:55:48.143Z,100.00
2022-08-27T07:58:11.587Z,100.00
2022-08-27T08:00:34.692Z,100.00
2022-08-27T08:02:56.517Z,100.00
2022-08-27T08:05:19.381Z,100.00
2022-08-27T08:07:41.305Z,100.00
2022-08-27T08:10:02.892Z,100.00
2022-08-27T08:12:26.493Z,100.00
2022-08-27T08:14:49.163Z,100.00
2022-08-27T08:17:10.841Z,100.00
2022-08-27T08:19:33.747Z,100.00
2022-08-27T08:22:00.438Z,99.79
2022-08-27T08:24:24.048Z,99.05
2022-08-27T08:26:45.688Z,98.65
2022-08-27T08:29:07.218Z,98.30
2022-08-27T08:31:28.683Z,98.35
2022-08-27T08:33:50.322Z,98.46
2022-08-27T08:36:14.896Z,98.02
2022-08-27T08:38:37.608Z,98.08
2022-08-27T08:40:59.231Z,98.47
2022-08-27T08:43:26.900Z,98.71
2022-08-27T08:45:50.086Z,98.50
2022-08-27T08:48:23.927Z,97.88
2022-08-27T08:50:55.082Z,98.05
2022-08-27T08:53:33.282Z,97.32
2022-08-27T08:55:58.627Z,96.81
2022-08-27T08:58:51.605Z,95.28
2022-08-27T09:01:17.084Z,95.93
2022-08-27T09:03:42.098Z,94.31
2022-08-27T09:06:07.346Z,95.42
2022-08-27T09:08:41.701Z,94.63
2022-08-27T09:11:35.922Z,93.78
2022-08-27T09:14:07.527Z,93.46
2022-08-27T09:16:32.657Z,94.51
2022-08-27T09:18:54.875Z,92.94
2022-08-27T09:21:48.658Z,92.52
2022-08-27T09:24:34.893Z,92.00
2022-08-27T09:26:56.677Z,92.32
2022-08-27T09:29:20.220Z,91.66
2022-08-27T09:32:04.168Z,90.56
2022-08-27T09:34:34.416Z,89.19
2022-08-27T09:37:33.908Z,87.73
2022-08-27T09:40:13.810Z,88.64
2022-08-27T09:42:53.111Z,87.45
2022-08-27T09:45:19.377Z,86.73
2022-08-27T09:47:48.544Z,85.88
2022-08-27T09:50:10.620Z,86.17
2022-08-27T09:52:37.841Z,85.94
2022-08-27T09:55:00.098Z,86.14
2022-08-27T09:57:34.496Z,85.68
2022-08-27T09:59:56.264Z,85.70
2022-08-27T10:02:23.660Z,84.72
2022-08-27T10:04:50.475Z,83.58
2022-08-27T10:07:31.464Z,84.18
2022-08-27T10:10:05.195Z,83.12
2022-08-27T10:12:40.546Z,81.44
2022-08-27T10:15:05.401Z,80.41
2022-08-27T10:17:51.437Z,81.11
2022-08-27T10:20:30.296Z,80.91
2022-08-27T10:23:10.214Z,80.17
2022-08-27T10:25:47.077Z,80.49
2022-08-27T10:28:36.720Z,80.22
2022-08-27T10:31:18.163Z,79.28
2022-08-27T10:34:01.447Z,80.57
2022-08-27T10:36:52.309Z,82.19
2022-08-27T10:39:23.651Z,80.25
2022-08-27T10:42:03.809Z,80.81
2022-08-27T10:44:46.155Z,80.91
2022-08-27T10:47:46.469Z,80.20
2022-08-27T10:50:24.879Z,79.53
2022-08-27T10:52:55.679Z,78.57
2022-08-27T10:55:23.920Z,76.61
2022-08-27T10:58:25.385Z,76.43
2022-08-27T11:01:11.093Z,75.54
2022-08-27T11:04:06.573Z,75.02
2022-08-27T11:06:33.695Z,74.06
2022-08-27T11:09:01.032Z,73.09
2022-08-27T11:14:42.966Z,71.27
2022-08-27T11:17:12.108Z,72.21
2022-08-27T11:19:57.143Z,72.15
2022-08-27T11:22:37.149Z,71.92
2022-08-27T11:25:10.770Z,72.37
2022-08-27T11:27:34.400Z,73.30
2022-08-27T11:30:17.999Z,74.02
2022-08-27T11:32:58.400Z,74.73
2022-08-27T11:35:35.427Z,74.81
2022-08-27T11:38:34.455Z,75.53
2022-08-27T11:40:58.608Z,75.70
2022-08-27T11:43:23.758Z,76.27
2022-08-27T11:45:58.415Z,76.59
2022-08-27T11:48:26.427Z,75.85
2022-08-27T11:51:01.013Z,74.93
2022-08-27T11:53:29.009Z,74.46
2022-08-27T11:55:50.456Z,76.08
2022-08-27T11:58:17.999Z,77.44
2022-08-27T12:00:42.066Z,78.98
2022-08-27T12:03:24.985Z,79.72
2022-08-27T12:06:10.470Z,80.55
2022-08-27T12:08:37.601Z,82.03
2022-08-27T12:11:02.015Z,82.15
2022-08-27T12:13:36.052Z,82.72
2022-08-27T12:16:12.639Z,82.97
2022-08-27T12:18:56.009Z,83.43
2022-08-27T12:21:42.738Z,84.75
2022-08-27T12:24:26.034Z,84.89
2022-08-27T12:26:59.847Z,85.43
2022-08-27T12:29:31.127Z,85.77
2022-08-27T12:32:03.268Z,84.71
2022-08-27T12:34:26.375Z,85.24
2022-08-27T12:36:49.579Z,84.57
2022-08-27T12:39:18.073Z,83.90
2022-08-27T12:41:46.135Z,81.77
2022-08-27T12:44:10.577Z,81.14
2022-08-27T12:46:33.523Z,80.59
2022-08-27T12:48:58.032Z,80.70
2022-08-27T12:51:36.226Z,80.83
2022-08-27T12:54:10.993Z,78.75
2022-08-27T12:56:56.248Z,78.62
2022-08-27T13:00:00.609Z,78.18
2022-08-27T13:02:54.249Z,77.69
2022-08-27T13:05:21.225Z,77.76
2022-08-27T13:07:46.277Z,77.63
2022-08-27T13:10:21.786Z,77.50
2022-08-27T13:12:44.920Z,77.64
2022-08-27T13:15:08.514Z,77.73
2022-08-27T13:17:30.313Z,76.94
2022-08-27T13:20:02.018Z,76.74
2022-08-27T13:22:29.055Z,77.37
2022-08-27T13:24:53.520Z,75.87
2022-08-27T13:27:15.305Z,75.60
2022-08-27T13:29:37.528Z,75.76
2022-08-27T13:31:59.977Z,75.35
2022-08-27T13:34:25.700Z,76.67
2022-08-27T13:37:21.084Z,76.73
2022-08-27T13:39:43.693Z,76.97
2022-08-27T13:42:08.212Z,76.42
2022-08-27T13:44:41.120Z,75.70
2022-08-27T13:47:09.239Z,74.91
2022-08-27T13:49:37.197Z,74.57
2022-08-27T13:52:27.068Z,74.74
2022-08-27T13:54:53.305Z,74.86
2022-08-27T13:57:31.310Z,74.57
2022-08-27T13:59:53.174Z,74.85
2022-08-27T14:02:24.544Z,74.91
2022-08-27T14:04:48.738Z,76.06
2022-08-27T14:07:13.964Z,76.40
2022-08-27T14:09:51.268Z,76.07
2022-08-27T14:12:32.876Z,76.62
2022-08-27T14:14:55.196Z,77.31
2022-08-27T14:17:27.834Z,77.47
2022-08-27T14:19:50.994Z,78.37
2022-08-27T14:22:12.424Z,79.30
2022-08-27T14:24:33.862Z,79.11
2022-08-27T14:27:04.628Z,79.15
2022-08-27T14:29:26.052Z,78.83
2022-08-27T14:31:47.562Z,79.01
2022-08-27T14:34:09.033Z,76.92
2022-08-27T14:36:39.168Z,76.88
2022-08-27T14:39:00.750Z,76.05
2022-08-27T14:41:24.822Z,74.65
2022-08-27T14:43:48.952Z,75.57
2022-08-27T14:46:27.269Z,75.33
2022-08-27T14:48:51.683Z,76.22
2022-08-27T14:51:18.568Z,76.32
2022-08-27T14:53:40.007Z,76.41
2022-08-27T14:56:01.819Z,75.95
2022-08-27T14:58:23.261Z,76.26
2022-08-27T15:00:44.718Z,74.84
2022-08-27T15:03:07.764Z,73.40
2022-08-27T15:05:29.315Z,73.22
2022-08-27T15:07:51.418Z,72.63
2022-08-27T15:10:13.681Z,70.76
2022-08-27T15:12:35.378Z,69.98
2022-08-27T15:14:56.845Z,70.21
2022-08-27T15:17:34.236Z,70.33
2022-08-27T15:19:56.792Z,71.39
2022-08-27T15:22:24.289Z,71.27
2022-08-27T15:24:50.737Z,71.58
2022-08-27T15:27:12.182Z,71.99
2022-08-27T15:29:33.874Z,72.99
2022-08-27T15:31:55.422Z,73.23
2022-08-27T15:34:17.432Z,73.81
2022-08-27T15:36:39.734Z,74.65
2022-08-27T15:39:01.679Z,73.89
2022-08-27T15:41:28.553Z,73.98
2022-08-27T15:43:50.679Z,73.39
2022-08-27T15:46:12.213Z,73.85
2022-08-27T15:48:33.780Z,74.15
2022-08-27T15:50:55.508Z,74.12
2022-08-27T15:53:21.594Z,73.96
2022-08-27T15:55:44.302Z,74.49
2022-08-27T15:58:06.420Z,75.23
2022-08-27T16:00:30.045Z,74.96
2022-08-27T16:02:51.715Z,75.44
2022-08-27T16:05:15.092Z,75.31
2022-08-27T16:07:36.560Z,75.73
2022-08-27T16:09:58.178Z,74.97
2022-08-27T16:12:26.785Z,75.77
2022-08-27T16:14:49.079Z,75.54
2022-08-27T16:17:10.714Z,75.59
2022-08-27T16:19:32.793Z,75.06
2022-08-27T16:21:54.347Z,75.14
2022-08-27T16:24:15.832Z,75.60
2022-08-27T16:26:37.821Z,75.17
2022-08-27T16:28:59.281Z,75.01
2022-08-27T16:31:20.798Z,74.84
2022-08-27T16:33:42.618Z,75.57
2022-08-27T16:36:05.030Z,75.93
2022-08-27T16:38:27.394Z,75.61
2022-08-27T16:40:54.166Z,76.67
2022-08-27T16:43:21.222Z,75.99
2022-08-27T16:45:42.933Z,76.40
2022-08-27T16:48:22.770Z,75.92
2022-08-27T16:50:44.216Z,76.05
2022-08-27T16:53:17.022Z,76.73
2022-08-27T16:55:39.079Z,76.99
2022-08-27T16:58:01.059Z,77.37
2022-08-27T17:00:22.532Z,76.97
2022-08-27T17:02:44.139Z,77.11
2022-08-27T17:05:24.013Z,76.96
2022-08-27T17:07:49.233Z,77.25
2022-08-27T17:10:13.273Z,75.88
2022-08-27T17:12:35.759Z,75.09
2022-08-27T17:15:00.479Z,75.26
2022-08-27T17:17:21.989Z,75.93
2022-08-27T17:19:45.371Z,75.73
2022-08-27T17:22:09.385Z,76.11
2022-08-27T17:24:31.331Z,76.82
2022-08-27T17:26:53.104Z,77.63
2022-08-27T17:29:14.563Z,78.13
2022-08-27T17:31:38.423Z,78.82
2022-08-27T17:34:00.536Z,78.99
2022-08-27T17:36:23.030Z,78.90
2022-08-27T17:38:49.835Z,78.83
2022-08-27T17:41:28.689Z,79.14
2022-08-27T17:43:57.678Z,79.08
2022-08-27T17:46:19.248Z,78.93
2022-08-27T17:48:41.394Z,79.01
2022-08-27T17:51:03.951Z,79.63
2022-08-27T17:53:25.563Z,78.73
2022-08-27T17:55:47.068Z,79.07
2022-08-27T17:58:08.589Z,79.37
2022-08-27T18:00:30.039Z,78.55
2022-08-27T18:02:52.404Z,78.05
2022-08-27T18:05:15.350Z,78.47
2022-08-27T18:07:39.999Z,78.47
2022-08-27T18:10:02.060Z,78.77
2022-08-27T18:12:25.973Z,78.67
2022-08-27T18:14:53.461Z,79.29
2022-08-27T18:17:14.917Z,78.56
2022-08-27T18:19:37.759Z,78.93
2022-08-27T18:22:00.537Z,78.78
2022-08-27T18:24:21.979Z,78.37
2022-08-27T18:26:44.778Z,78.68
2022-08-27T18:29:06.342Z,78.83
2022-08-27T18:31:31.535Z,79.04
2022-08-27T18:33:53.688Z,79.47
2022-08-27T18:36:15.351Z,79.88
2022-08-27T18:38:36.843Z,79.96
2022-08-27T18:40:58.834Z,80.68
2022-08-27T18:43:30.858Z,80.14
2022-08-27T18:45:52.405Z,81.01
2022-08-27T18:48:21.239Z,81.72
2022-08-27T18:50:46.707Z,81.22
2022-08-27T18:53:08.396Z,80.82
2022-08-27T18:55:29.838Z,80.92
2022-08-27T18:57:52.043Z,80.21
2022-08-27T19:00:15.796Z,80.59
2022-08-27T19:02:37.725Z,80.45
2022-08-27T19:04:59.655Z,80.57
2022-08-27T19:07:21.153Z,81.53
2022-08-27T19:09:43.010Z,80.92
2022-08-27T19:12:05.142Z,81.08
2022-08-27T19:14:26.631Z,80.76
2022-08-27T19:16:53.787Z,81.13
2022-08-27T19:19:17.577Z,80.48
2022-08-27T19:21:39.668Z,80.36
2022-08-27T19:24:01.391Z,80.85
2022-08-27T19:26:25.286Z,81.10
2022-08-27T19:28:47.020Z,80.95
2022-08-27T19:31:08.764Z,80.48
2022-08-27T19:33:30.362Z,80.92
2022-08-27T19:35:51.859Z,81.24
2022-08-27T19:38:14.546Z,81.69
2022-08-27T19:40:36.081Z,81.47
2022-08-27T19:42:57.600Z,81.85
2022-08-27T19:45:22.952Z,81.69
2022-08-27T19:47:44.934Z,82.09
2022-08-27T19:50:06.923Z,81.39
2022-08-27T19:52:28.397Z,81.51
2022-08-27T19:55:12.557Z,81.76
2022-08-27T19:57:31.658Z,82.08
2022-08-27T19:59:53.106Z,82.06
2022-08-27T20:02:14.571Z,81.44
2022-08-27T20:04:56.030Z,80.69
2022-08-27T20:07:21.923Z,80.09
2022-08-27T20:09:43.372Z,80.66
2022-08-27T20:12:05.356Z,80.54
2022-08-27T20:14:26.815Z,79.98
2022-08-27T20:16:48.508Z,79.22
2022-08-27T20:19:11.003Z,79.40
2022-08-27T20:21:32.469Z,80.36
2022-08-27T20:23:53.999Z,80.43
2022-08-27T20:26:15.771Z,80.45
2022-08-27T20:28:39.978Z,80.93
2022-08-27T20:31:02.358Z,79.69
2022-08-27T20:33:23.931Z,80.13
2022-08-27T20:35:45.496Z,80.33
2022-08-27T20:38:07.397Z,80.40
2022-08-27T20:40:31.369Z,80.24
2022-08-27T20:42:52.978Z,80.34
2022-08-27T20:45:15.267Z,81.51
2022-08-27T20:47:37.459Z,81.61
2022-08-27T20:49:59.889Z,81.03
2022-08-27T20:52:24.898Z,81.37
2022-08-27T20:54:46.698Z,81.65
2022-08-27T20:57:08.960Z,80.84
2022-08-27T20:59:49.672Z,81.50
2022-08-27T21:02:13.146Z,80.84
2022-08-27T21:04:39.178Z,81.42
2022-08-27T21:07:00.655Z,80.56
2022-08-27T21:09:22.087Z,80.60
2022-08-27T21:11:43.535Z,80.72
2022-08-27T21:14:05.027Z,80.43
2022-08-27T21:16:27.867Z,80.49
2022-08-27T21:18:49.426Z,80.55
2022-08-27T21:21:10.938Z,80.43
2022-08-27T21:23:34.605Z,80.91
2022-08-27T21:26:01.571Z,81.71
2022-08-27T21:28:23.086Z,81.58
2022-08-27T21:30:45.235Z,81.82
2022-08-27T21:33:06.685Z,81.95
2022-08-27T21:35:30.185Z,81.82
2022-08-27T21:37:51.656Z,81.94
2022-08-27T21:40:13.130Z,81.96
2022-08-27T21:42:35.105Z,82.33
2022-08-27T21:44:56.656Z,83.43
2022-08-27T21:47:18.193Z,83.36
2022-08-27T21:49:39.684Z,83.38
2022-08-27T21:52:06.092Z,84.24
2022-08-27T21:54:28.092Z,83.71
2022-08-27T21:56:49.756Z,83.30
2022-08-27T21:59:11.480Z,82.83
2022-08-27T22:01:32.998Z,82.63
2022-08-27T22:03:55.202Z,82.83
2022-08-27T22:06:17.809Z,83.03
2022-08-27T22:08:39.732Z,82.35
2022-08-27T22:11:01.657Z,81.91
2022-08-27T22:13:23.778Z,81.05
2022-08-27T22:15:45.514Z,80.57
2022-08-27T22:18:08.133Z,79.90
2022-08-27T22:20:29.925Z,79.94
2022-08-27T22:22:52.302Z,80.07
2022-08-27T22:25:14.750Z,79.53
2022-08-27T22:27:36.467Z,79.54
2022-08-27T22:29:58.030Z,79.30
2022-08-27T22:32:19.494Z,78.83
2022-08-27T22:34:40.927Z,78.45
2022-08-27T22:37:03.393Z,78.37
2022-08-27T22:39:25.013Z,78.32
2022-08-27T22:41:49.149Z,78.53
2022-08-27T22:44:11.216Z,78.38
2022-08-27T22:46:32.828Z,78.07
2022-08-27T22:48:54.372Z,78.25
2022-08-27T22:51:15.851Z,78.17
2022-08-27T22:53:37.349Z,77.99
2022-08-27T22:56:01.282Z,78.28
2022-08-27T22:58:24.375Z,78.40
2022-08-27T23:00:50.845Z,79.06
2022-08-27T23:03:14.822Z,79.81
2022-08-27T23:05:41.748Z,80.45
2022-08-27T23:08:08.956Z,80.40
2022-08-27T23:10:30.709Z,79.87
2022-08-27T23:12:53.685Z,79.63
2022-08-27T23:15:17.968Z,79.48
2022-08-27T23:17:39.409Z,79.29
2022-08-27T23:20:00.870Z,79.17
2022-08-27T23:22:22.840Z,78.83
2022-08-27T23:25:02.982Z,79.12
2022-08-27T23:27:30.298Z,79.53
2022-08-27T23:29:52.023Z,80.94
2022-08-27T23:32:14.207Z,82.10
2022-08-27T23:34:35.665Z,82.19
2022-08-27T23:36:57.181Z,81.49
2022-08-27T23:39:18.714Z,82.65
2022-08-27T23:41:41.227Z,81.31
2022-08-27T23:44:02.908Z,80.98
2022-08-27T23:46:24.790Z,81.19
2022-08-27T23:48:46.287Z,81.40
2022-08-27T23:51:09.107Z,81.38
2022-08-27T23:53:30.671Z,81.82
2022-08-27T23:55:52.125Z,82.83
2022-08-27T23:58:13.728Z,84.16
